| Record Date MM/DD/YYYY | Record Time HH:MM:SS | Record Julian Date NNN day of the year | Air Temperature Max (Degrees Fahrenheit F) | Time Max Air Temperature HH:MM:SS This is the time of max air temp for the prior hour interval listed for record [Time]. | Air Temperature Min (Degrees Fahrenheit F) | Time Min Air Temperature HH:MM:SS This is the time of min air temp for the prior hour interval listed for record [Time]. | Air Temperature Observed (Degrees Fahrenheit F) This is an instantaneous reading at the record [Time]. | Relative Humidity Max (Percent) | Time Max Relative Humidity HH:MM:SS This is the time of max relative humidity for the prior hour interval listed for record [Time]. | Relative Humidity Min (Percent) | Time Min Relative Humidity HH:MM:SS This is the time of min relative humidity for the prior hour interval listed for record [Time]. | Relative Humidity Observed (Percent) This is an instantaneous reading at the record [Time]. | Precipitation (Inches n.nn) rain fall that occurred during the prior hour interval listed for record [Time]. | Wind Speed (Miles Per Hour) Resultant Speed that occurred during the prior hour interval listed for record [Time]. | Wind Direction (Degrees) Resultant Direction that occurred during the prior hour interval listed for record [Time]. | Solar Radiation (Langley's) that occurred during the prior hour interval listed for record [Time]. | Soil Temperature Average at 2 inch depth (Degrees Fahrenheit F) that occurred during the prior hour interval listed for record [Time]. | Soil Temperature Observed at 2 inch depth (Degrees Fahrenheit F) This is an instantaneous reading at the record [Time]. | Soil Temperature Average at 4 inch depth (Degrees Fahrenheit F) that occurred during the prior hour interval listed for record [Time]. | Soil Temperature Observed at 4 inch depth (Degrees Fahrenheit F) This is an instantaneous reading at the record [Time]. |
|---|---|---|---|---|---|---|---|---|---|---|---|---|---|---|---|---|---|---|---|---|
| 04/26/2026 | 0:00:00 | 116 | 73 | 23:20:05 | 72 | 23:00:02 | 72 | 91 | 23:11:05 | 90 | 23:25:00 | 90.8 | 0 | 3.7 | 189 | 0 | 75 | 75 | 76 | 75 |
| 04/26/2026 | 1:00:00 | 116 | 73 | 0:00:01 | 71 | 0:55:05 | 71 | 93 | 0:59:05 | 91 | 0:01:04 | 92.5 | 0 | 1.9 | 176 | 0 | 75 | 74 | 75 | 75 |
| 04/26/2026 | 2:00:00 | 116 | 71 | 1:00:01 | 70 | 1:55:03 | 70 | 94 | 1:59:02 | 92 | 1:03:01 | 93.7 | 0 | 1.8 | 157 | 0 | 74 | 74 | 75 | 74 |
| 04/26/2026 | 3:00:00 | 116 | 71 | 2:55:05 | 70 | 2:21:02 | 70 | 94 | 2:37:00 | 93 | 2:18:00 | 93.9 | 0 | 0.5 | 48 | 0 | 74 | 74 | 74 | 74 |
| 04/26/2026 | 4:00:00 | 116 | 71 | 3:58:05 | 70 | 3:27:03 | 71 | 94 | 3:41:00 | 94 | 3:12:04 | 94.3 | 0 | 1.0 | 26 | 0 | 74 | 74 | 74 | 74 |
| 04/26/2026 | 5:00:00 | 116 | 71 | 4:53:05 | 70 | 4:36:05 | 71 | 95 | 4:48:01 | 94 | 4:01:04 | 94.4 | 0 | 0.2 | 204 | 0 | 74 | 73 | 74 | 74 |
| 04/26/2026 | 6:00:00 | 116 | 71 | 5:17:04 | 70 | 5:34:03 | 71 | 95 | 5:57:05 | 94 | 5:22:00 | 94.6 | 0 | 1.4 | 157 | 0 | 73 | 73 | 74 | 74 |
| 04/26/2026 | 7:00:00 | 116 | 71 | 6:00:05 | 70 | 6:33:02 | 71 | 95 | 6:52:02 | 95 | 6:26:03 | 94.8 | 0 | 1.0 | 94 | 1 | 73 | 73 | 74 | 73 |
| 04/26/2026 | 8:00:00 | 116 | 71 | 7:31:04 | 64 | 7:54:03 | 65 | 95 | 7:31:04 | 93 | 7:34:05 | 93.7 | 0.73 | 6.7 | 350 | 0 | 73 | 71 | 73 | 73 |
| 04/26/2026 | 9:00:00 | 116 | 65 | 8:17:05 | 65 | 8:00:00 | 65 | 94 | 8:00:01 | 91 | 8:28:05 | 92.3 | 0.11 | 5.5 | 52 | 2 | 70 | 70 | 72 | 72 |
| 04/26/2026 | 10:00:00 | 116 | 70 | 10:00:00 | 65 | 9:00:03 | 70 | 93 | 9:20:01 | 86 | 9:57:05 | 87.2 | 0.01 | 3.6 | 105 | 31 | 71 | 72 | 72 | 72 |
| 04/26/2026 | 11:00:00 | 116 | 77 | 10:59:01 | 70 | 10:00:00 | 77 | 88 | 10:00:04 | 73 | 10:59:05 | 73.16 | 0 | 4.0 | 145 | 59 | 74 | 76 | 73 | 74 |
| 04/26/2026 | 12:00:00 | 116 | 81 | 11:59:04 | 77 | 11:00:00 | 81 | 77 | 11:00:05 | 65 | 11:46:04 | 68.06 | 0 | 5.2 | 192 | 78 | 78 | 80 | 75 | 76 |
| 04/26/2026 | 13:00:00 | 116 | 83 | 12:32:02 | 80 | 12:07:03 | 82 | 72 | 12:51:05 | 65 | 12:05:03 | 69.17 | 0 | 4.8 | 241 | 67 | 81 | 82 | 78 | 79 |
| 04/26/2026 | 14:00:00 | 116 | 84 | 13:57:04 | 82 | 13:29:05 | 84 | 72 | 13:16:02 | 64 | 13:59:03 | 65.9 | 0 | 5.5 | 261 | 62 | 83 | 83 | 80 | 80 |
| 04/26/2026 | 15:00:00 | 116 | 85 | 14:24:02 | 83 | 14:50:00 | 84 | 69 | 14:12:01 | 63 | 14:25:04 | 67.21 | 0 | 4.8 | 233 | 50 | 84 | 84 | 81 | 81 |
| 04/26/2026 | 16:00:00 | 116 | 85 | 15:13:04 | 82 | 15:41:02 | 84 | 71 | 15:47:01 | 64 | 15:15:01 | 67.27 | 0 | 3.9 | 209 | 31 | 84 | 83 | 81 | 81 |
| 04/26/2026 | 17:00:00 | 116 | 84 | 16:01:04 | 82 | 16:59:05 | 82 | 70 | 16:23:04 | 64 | 16:41:03 | 66.43 | 0 | 4.9 | 214 | 25 | 83 | 82 | 81 | 81 |
| 04/26/2026 | 18:00:00 | 116 | 82 | 17:00:00 | 79 | 18:00:00 | 79 | 75 | 17:59:03 | 66 | 17:00:03 | 74.46 | 0 | 3.6 | 194 | 10 | 81 | 81 | 81 | 80 |
| 04/26/2026 | 19:00:00 | 116 | 79 | 18:00:05 | 74 | 19:00:00 | 74 | 82 | 18:56:03 | 74 | 18:00:05 | 82 | 0 | 1.4 | 167 | 1 | 80 | 79 | 80 | 79 |
| 04/26/2026 | 20:00:00 | 116 | 74 | 19:00:00 | 72 | 19:59:05 | 72 | 86 | 20:00:00 | 82 | 19:00:03 | 85.6 | 0 | 1.9 | 179 | 0 | 78 | 78 | 79 | 78 |
| 04/26/2026 | 21:00:00 | 116 | 72 | 20:26:04 | 70 | 20:59:04 | 70 | 89 | 20:57:03 | 85 | 20:29:04 | 88.2 | 0 | 1.4 | 113 | 0 | 77 | 77 | 78 | 77 |
| 04/26/2026 | 22:00:00 | 116 | 70 | 21:00:01 | 69 | 21:42:05 | 69 | 92 | 21:52:00 | 88 | 21:00:01 | 91.6 | 0 | 0.7 | 130 | 0 | 76 | 76 | 77 | 76 |
| 04/26/2026 | 23:00:00 | 116 | 69 | 22:02:01 | 68 | 22:25:02 | 69 | 92 | 22:46:01 | 91 | 22:09:03 | 91.9 | 0 | 0.8 | 118 | 0 | 75 | 75 | 76 | 76 |
| 04/27/2026 | 0:00:00 | 117 | 69 | 23:10:05 | 68 | 23:58:02 | 68 | 93 | 23:50:02 | 92 | 23:04:01 | 92.4 | 0 | 0.8 | 129 | 0 | 75 | 74 | 75 | 75 |
| 04/27/2026 | 1:00:00 | 117 | 68 | 0:19:03 | 67 | 0:52:01 | 68 | 93 | 0:58:04 | 92 | 0:00:00 | 93.3 | 0 | 0.9 | 120 | 0 | 74 | 74 | 75 | 75 |
| 04/27/2026 | 2:00:00 | 117 | 68 | 1:07:00 | 67 | 2:00:00 | 67 | 94 | 1:49:01 | 93 | 1:02:02 | 93.5 | 0 | 1.3 | 99 | 0 | 73 | 73 | 74 | 74 |
| 04/27/2026 | 3:00:00 | 117 | 68 | 2:44:01 | 67 | 2:01:05 | 67 | 94 | 2:59:04 | 93 | 2:01:04 | 94.2 | 0 | 0.7 | 103 | 0 | 73 | 73 | 74 | 74 |
| 04/27/2026 | 4:00:00 | 117 | 69 | 3:59:02 | 67 | 3:05:04 | 69 | 95 | 3:59:05 | 94 | 3:04:00 | 94.5 | 0 | 1.6 | 131 | 0 | 73 | 72 | 73 | 73 |
| 04/27/2026 | 5:00:00 | 117 | 69 | 5:00:00 | 68 | 4:10:02 | 69 | 95 | 5:00:00 | 94 | 4:08:03 | 94.9 | 0 | 1.5 | 112 | 0 | 73 | 73 | 73 | 73 |
| 04/27/2026 | 6:00:00 | 117 | 70 | 5:58:04 | 69 | 5:00:03 | 70 | 95 | 5:59:02 | 95 | 5:01:02 | 95.4 | 0 | 2.1 | 123 | 1 | 73 | 73 | 73 | 73 |
| 04/27/2026 | 7:00:00 | 117 | 71 | 6:58:01 | 70 | 6:03:00 | 71 | 96 | 6:51:04 | 95 | 6:02:04 | 95.7 | 0 | 2.5 | 132 | 7 | 73 | 73 | 73 | 73 |
| 04/27/2026 | 8:00:00 | 117 | 75 | 7:58:04 | 71 | 7:01:02 | 74 | 96 | 7:00:03 | 93 | 7:59:04 | 92.9 | 0 | 4.4 | 146 | 24 | 74 | 75 | 73 | 74 |
| 04/27/2026 | 9:00:00 | 117 | 79 | 8:52:02 | 74 | 8:00:00 | 78 | 93 | 8:00:01 | 77 | 8:54:04 | 77.8 | 0 | 7.2 | 156 | 38 | 75 | 76 | 74 | 75 |
| 04/27/2026 | 10:00:00 | 117 | 82 | 9:50:05 | 78 | 9:00:01 | 82 | 79 | 9:03:04 | 70 | 9:51:01 | 72.27 | 0 | 7.9 | 162 | 59 | 77 | 79 | 75 | 76 |
| 04/27/2026 | 11:00:00 | 117 | 84 | 11:00:00 | 82 | 10:00:03 | 84 | 75 | 10:03:00 | 64 | 10:46:02 | 65.85 | 0 | 9.5 | 162 | 73 | 80 | 81 | 77 | 78 |
| 04/27/2026 | 12:00:00 | 117 | 86 | 11:34:00 | 84 | 11:06:04 | 85 | 68 | 11:21:03 | 59 | 11:35:02 | 60.28 | 0 | 9.3 | 166 | 68 | 82 | 83 | 79 | 80 |
| 04/27/2026 | 13:00:00 | 117 | 86 | 12:20:02 | 84 | 12:00:00 | 85 | 64 | 12:18:00 | 55 | 12:23:00 | 59.18 | 0 | 10.0 | 160 | 75 | 84 | 84 | 80 | 81 |
| 04/27/2026 | 14:00:00 | 117 | 87 | 14:00:00 | 85 | 13:13:04 | 87 | 63 | 13:03:01 | 53 | 13:55:02 | 56.89 | 0 | 9.5 | 154 | 69 | 84 | 85 | 81 | 81 |
| 04/27/2026 | 15:00:00 | 117 | 88 | 14:05:02 | 85 | 14:39:01 | 85 | 60 | 14:04:04 | 51 | 14:13:03 | 58.03 | 0 | 9.4 | 160 | 60 | 85 | 85 | 82 | 82 |
| 04/27/2026 | 16:00:00 | 117 | 86 | 15:32:04 | 83 | 15:59:05 | 83 | 64 | 15:50:03 | 54 | 15:10:01 | 61.31 | 0 | 9.1 | 153 | 47 | 84 | 84 | 82 | 82 |
| 04/27/2026 | 17:00:00 | 117 | 83 | 16:04:02 | 81 | 16:57:00 | 81 | 67 | 16:58:02 | 61 | 16:04:05 | 67 | 0 | 8.5 | 141 | 30 | 83 | 83 | 82 | 82 |
| 04/27/2026 | 18:00:00 | 117 | 81 | 17:01:04 | 78 | 17:59:01 | 78 | 71 | 17:57:03 | 66 | 17:00:03 | 69.73 | 0 | 6.6 | 138 | 12 | 82 | 81 | 81 | 81 |
| 04/27/2026 | 19:00:00 | 117 | 78 | 18:00:03 | 75 | 18:59:04 | 75 | 75 | 19:00:00 | 69 | 18:05:03 | 74.92 | 0 | 4.4 | 140 | 1 | 80 | 79 | 80 | 80 |
| 04/27/2026 | 20:00:00 | 117 | 75 | 19:00:00 | 73 | 19:50:03 | 73 | 81 | 19:51:03 | 75 | 19:00:00 | 80.7 | 0 | 3.3 | 138 | 0 | 78 | 78 | 79 | 78 |
| 04/27/2026 | 21:00:00 | 117 | 73 | 20:00:01 | 71 | 20:59:01 | 71 | 85 | 20:59:05 | 81 | 20:00:00 | 85.2 | 0 | 2.8 | 131 | 0 | 77 | 77 | 78 | 78 |
| 04/27/2026 | 22:00:00 | 117 | 71 | 21:00:01 | 70 | 22:00:00 | 70 | 89 | 21:59:04 | 85 | 21:00:01 | 88.7 | 0 | 1.5 | 113 | 0 | 76 | 76 | 77 | 77 |
| 04/27/2026 | 23:00:00 | 117 | 70 | 22:00:03 | 68 | 22:59:05 | 68 | 91 | 22:58:02 | 89 | 22:01:02 | 90.9 | 0 | 0.7 | 125 | 0 | 76 | 75 | 76 | 76 |
| 04/28/2026 | 0:00:00 | 118 | 68 | 23:19:05 | 67 | 23:59:05 | 67 | 93 | 23:55:00 | 91 | 23:00:01 | 92 | 0 | 0.8 | 91 | 0 | 75 | 74 | 76 | 75 |
| 04/28/2026 | 1:00:00 | 118 | 68 | 0:09:03 | 66 | 0:38:00 | 66 | 93 | 0:45:00 | 92 | 0:00:00 | 93.1 | 0 | 0.6 | 63 | 0 | 74 | 74 | 75 | 75 |
| 04/28/2026 | 2:00:00 | 118 | 67 | 1:05:05 | 65 | 1:44:01 | 66 | 94 | 1:50:04 | 93 | 1:20:00 | 93.6 | 0 | 0.7 | 58 | 0 | 74 | 73 | 75 | 74 |
| 04/28/2026 | 3:00:00 | 118 | 68 | 3:00:00 | 65 | 2:10:02 | 68 | 95 | 2:54:01 | 93 | 2:04:02 | 94.4 | 0 | 1.0 | 95 | 0 | 73 | 73 | 74 | 74 |
| 04/28/2026 | 4:00:00 | 118 | 68 | 3:18:01 | 67 | 3:56:00 | 68 | 95 | 3:01:03 | 94 | 3:21:02 | 94.4 | 0 | 1.2 | 111 | 0 | 73 | 73 | 74 | 74 |
| 04/28/2026 | 5:00:00 | 118 | 69 | 4:59:04 | 67 | 4:36:04 | 69 | 95 | 4:55:04 | 94 | 4:18:00 | 94.9 | 0 | 0.7 | 81 | 0 | 73 | 73 | 74 | 73 |
| 04/28/2026 | 6:00:00 | 118 | 70 | 5:56:02 | 68 | 5:01:05 | 70 | 95 | 5:04:02 | 95 | 5:10:00 | 94.8 | 0 | 2.7 | 132 | 1 | 73 | 73 | 73 | 73 |
| 04/28/2026 | 7:00:00 | 118 | 72 | 6:57:04 | 70 | 6:00:01 | 72 | 95 | 6:34:03 | 94 | 6:58:04 | 94.1 | 0 | 2.2 | 158 | 11 | 73 | 73 | 73 | 73 |
| 04/28/2026 | 8:00:00 | 118 | 75 | 7:59:05 | 72 | 7:00:02 | 75 | 94 | 7:01:03 | 89 | 7:58:02 | 88.9 | 0 | 3.8 | 144 | 24 | 74 | 75 | 74 | 74 |
| 04/28/2026 | 9:00:00 | 118 | 80 | 8:59:01 | 75 | 8:00:01 | 80 | 89 | 8:00:02 | 75 | 8:59:03 | 76.77 | 0 | 6.0 | 164 | 41 | 75 | 76 | 74 | 75 |
| 04/28/2026 | 10:00:00 | 118 | 82 | 9:55:04 | 79 | 9:16:05 | 82 | 78 | 9:11:00 | 69 | 9:56:03 | 71.38 | 0 | 6.9 | 182 | 59 | 78 | 79 | 76 | 77 |
| 04/28/2026 | 11:00:00 | 118 | 84 | 10:55:03 | 81 | 10:16:05 | 83 | 73 | 10:06:02 | 66 | 10:57:02 | 66.77 | 0 | 6.9 | 184 | 67 | 80 | 82 | 78 | 78 |
| 04/28/2026 | 12:00:00 | 118 | 85 | 11:59:03 | 83 | 11:19:04 | 85 | 70 | 11:45:05 | 63 | 11:59:04 | 63.29 | 0 | 8.9 | 170 | 75 | 83 | 84 | 79 | 80 |
| 04/28/2026 | 13:00:00 | 118 | 86 | 12:45:05 | 84 | 12:12:05 | 86 | 68 | 12:16:02 | 61 | 12:36:00 | 65.07 | 0 | 9.3 | 178 | 77 | 84 | 85 | 81 | 82 |
| 04/28/2026 | 14:00:00 | 118 | 87 | 13:20:01 | 85 | 13:49:03 | 86 | 67 | 13:28:00 | 61 | 13:12:05 | 65.37 | 0 | 8.3 | 181 | 70 | 86 | 86 | 82 | 83 |
| 04/28/2026 | 15:00:00 | 118 | 86 | 14:20:05 | 84 | 14:45:05 | 85 | 68 | 14:19:05 | 62 | 14:37:05 | 67.3 | 0 | 9.1 | 176 | 54 | 86 | 86 | 83 | 83 |
| 04/28/2026 | 16:00:00 | 118 | 85 | 15:00:05 | 83 | 15:42:01 | 84 | 71 | 15:59:02 | 64 | 15:01:02 | 70.09 | 0 | 9.4 | 181 | 47 | 85 | 85 | 83 | 83 |
| 04/28/2026 | 17:00:00 | 118 | 84 | 16:00:04 | 81 | 16:59:05 | 81 | 72 | 16:59:05 | 69 | 16:02:00 | 71.59 | 0 | 9.1 | 170 | 24 | 84 | 84 | 83 | 83 |
| 04/28/2026 | 18:00:00 | 118 | 81 | 17:09:01 | 79 | 17:59:04 | 79 | 75 | 17:56:02 | 71 | 17:01:03 | 74.96 | 0 | 6.5 | 156 | 9 | 83 | 82 | 82 | 82 |
| 04/28/2026 | 19:00:00 | 118 | 79 | 18:01:01 | 77 | 18:56:05 | 77 | 78 | 18:57:02 | 75 | 18:00:03 | 78.06 | 0 | 6.5 | 165 | 1 | 81 | 80 | 81 | 81 |
| 04/28/2026 | 20:00:00 | 118 | 77 | 19:00:02 | 74 | 19:54:03 | 74 | 87 | 19:59:05 | 78 | 19:00:01 | 87 | 0 | 3.4 | 140 | 0 | 79 | 79 | 80 | 79 |
| 04/28/2026 | 21:00:00 | 118 | 74 | 20:00:04 | 74 | 20:59:05 | 74 | 90 | 20:54:01 | 87 | 20:01:05 | 89.4 | 0 | 4.0 | 147 | 0 | 78 | 78 | 79 | 79 |
| 04/28/2026 | 22:00:00 | 118 | 74 | 21:04:04 | 73 | 21:55:05 | 73 | 91 | 21:59:00 | 90 | 21:00:00 | 90.8 | 0 | 4.1 | 162 | 0 | 78 | 77 | 78 | 78 |
| 04/28/2026 | 23:00:00 | 118 | 73 | 22:01:02 | 72 | 22:54:00 | 72 | 92 | 22:54:03 | 91 | 22:06:00 | 91.6 | 0 | 2.0 | 174 | 0 | 77 | 77 | 78 | 77 |
| 04/29/2026 | 0:00:00 | 119 | 72 | 23:00:05 | 71 | 23:56:02 | 71 | 92 | 23:44:04 | 91 | 23:06:05 | 92 | 0 | 2.2 | 191 | 0 | 76 | 76 | 77 | 77 |
| 04/29/2026 | 1:00:00 | 119 | 71 | 0:12:03 | 70 | 0:31:05 | 70 | 92 | 0:54:00 | 91 | 0:20:05 | 92.1 | 0 | 2.8 | 151 | 0 | 76 | 76 | 77 | 76 |
| 04/29/2026 | 2:00:00 | 119 | 71 | 1:54:00 | 70 | 1:30:02 | 71 | 93 | 1:50:04 | 92 | 1:00:01 | 92.8 | 0 | 2.9 | 170 | 0 | 75 | 75 | 76 | 76 |
| 04/29/2026 | 3:00:00 | 119 | 71 | 2:08:05 | 70 | 2:58:02 | 70 | 93 | 2:09:01 | 92 | 2:58:02 | 92.9 | 0 | 2.4 | 178 | 0 | 75 | 75 | 76 | 75 |
| 04/29/2026 | 4:00:00 | 119 | 70 | 3:00:05 | 68 | 3:56:04 | 68 | 93 | 3:59:00 | 92 | 3:50:04 | 93.2 | 0 | 0.5 | 99 | 0 | 74 | 74 | 75 | 75 |
| 04/29/2026 | 5:00:00 | 119 | 70 | 4:33:01 | 68 | 4:00:02 | 68 | 94 | 4:15:04 | 93 | 4:00:01 | 93.6 | 0 | 0.9 | 122 | 0 | 74 | 74 | 75 | 75 |
| 04/29/2026 | 6:00:00 | 119 | 69 | 5:59:05 | 67 | 5:19:02 | 68 | 94 | 5:52:03 | 93 | 5:16:01 | 94.3 | 0 | 0.6 | 103 | 1 | 74 | 73 | 74 | 74 |
| 04/29/2026 | 7:00:00 | 119 | 72 | 7:00:00 | 68 | 6:00:01 | 72 | 95 | 6:56:01 | 94 | 6:02:02 | 94.5 | 0 | 0.8 | 103 | 10 | 74 | 74 | 74 | 74 |
| 04/29/2026 | 8:00:00 | 119 | 76 | 7:54:04 | 72 | 7:00:00 | 75 | 95 | 7:01:01 | 86 | 7:57:02 | 86.2 | 0 | 3.0 | 208 | 27 | 75 | 76 | 75 | 75 |
| 04/29/2026 | 9:00:00 | 119 | 78 | 8:48:03 | 75 | 8:00:04 | 77 | 87 | 8:06:05 | 78 | 8:50:04 | 79.86 | 0 | 5.5 | 250 | 33 | 76 | 77 | 75 | 76 |
| 04/29/2026 | 10:00:00 | 119 | 82 | 9:58:02 | 77 | 9:01:01 | 82 | 81 | 9:02:03 | 68 | 9:55:05 | 69.93 | 0 | 5.2 | 237 | 54 | 78 | 79 | 77 | 77 |
| 04/29/2026 | 11:00:00 | 119 | 84 | 10:42:02 | 81 | 10:18:02 | 83 | 72 | 10:02:05 | 65 | 10:43:01 | 69.61 | 0 | 5.0 | 234 | 68 | 81 | 82 | 78 | 79 |
| 04/29/2026 | 12:00:00 | 119 | 85 | 11:52:00 | 82 | 11:11:04 | 85 | 71 | 11:00:00 | 61 | 11:53:05 | 63.19 | 0 | 5.7 | 230 | 78 | 84 | 85 | 80 | 81 |
| 04/29/2026 | 13:00:00 | 119 | 86 | 12:13:04 | 84 | 12:02:01 | 86 | 68 | 12:07:02 | 59 | 12:23:01 | 62.62 | 0 | 7.0 | 206 | 75 | 86 | 87 | 82 | 83 |
| 04/29/2026 | 14:00:00 | 119 | 86 | 13:00:00 | 84 | 13:52:00 | 85 | 66 | 13:08:01 | 58 | 13:44:05 | 62.71 | 0 | 7.5 | 214 | 64 | 87 | 87 | 84 | 84 |
| 04/29/2026 | 15:00:00 | 119 | 85 | 14:00:01 | 83 | 14:59:04 | 83 | 68 | 14:57:02 | 61 | 14:01:01 | 66.75 | 0 | 6.6 | 217 | 35 | 87 | 86 | 84 | 84 |
| 04/29/2026 | 16:00:00 | 119 | 83 | 15:00:00 | 80 | 15:58:05 | 80 | 71 | 15:57:01 | 66 | 15:00:04 | 71.1 | 0 | 3.3 | 208 | 5 | 85 | 83 | 84 | 83 |
| 04/29/2026 | 17:00:00 | 119 | 80 | 16:00:05 | 77 | 17:00:00 | 77 | 80 | 16:38:05 | 71 | 16:00:02 | 73.76 | 0 | 1.5 | 144 | 1 | 83 | 82 | 83 | 82 |
| 04/29/2026 | 18:00:00 | 119 | 77 | 17:00:00 | 68 | 17:59:04 | 68 | 91 | 18:00:00 | 74 | 17:00:00 | 90.9 | 0.33 | 6.9 | 45 | 0 | 81 | 80 | 81 | 81 |
| 04/29/2026 | 19:00:00 | 119 | 68 | 18:00:01 | 66 | 18:55:05 | 66 | 93 | 18:58:05 | 91 | 18:00:00 | 92.6 | 0.85 | 4.4 | 60 | 0 | 76 | 74 | 79 | 78 |
| 04/29/2026 | 20:00:00 | 119 | 66 | 19:46:04 | 66 | 19:20:00 | 66 | 93 | 19:58:04 | 93 | 19:01:00 | 93.1 | 0.25 | 4.5 | 107 | 0 | 74 | 74 | 77 | 76 |
| 04/29/2026 | 21:00:00 | 119 | 66 | 20:34:02 | 66 | 20:51:00 | 66 | 93 | 20:52:04 | 93 | 20:38:02 | 93.3 | 0.53 | 4.7 | 113 | 0 | 73 | 72 | 75 | 75 |
| 04/29/2026 | 22:00:00 | 119 | 66 | 21:50:03 | 66 | 21:10:05 | 66 | 94 | 21:54:02 | 93 | 21:01:03 | 93.9 | 0.34 | 2.5 | 116 | 0 | 72 | 72 | 74 | 74 |
| 04/29/2026 | 23:00:00 | 119 | 66 | 22:31:05 | 66 | 22:02:00 | 66 | 94 | 22:52:01 | 94 | 22:01:03 | 94.3 | 0.19 | 4.6 | 150 | 0 | 72 | 72 | 73 | 73 |
| 04/30/2026 | 0:00:00 | 120 | 67 | 23:44:01 | 66 | 23:00:00 | 66 | 94 | 23:04:02 | 94 | 23:55:05 | 94 | 0.01 | 3.3 | 166 | 0 | 72 | 72 | 73 | 73 |
| 04/30/2026 | 1:00:00 | 120 | 67 | 0:25:01 | 66 | 0:00:04 | 66 | 94 | 0:46:00 | 94 | 0:00:04 | 94.1 | 0.02 | 2.1 | 348 | 0 | 72 | 72 | 73 | 73 |
| 04/30/2026 | 2:00:00 | 120 | 67 | 1:54:01 | 66 | 1:01:04 | 67 | 94 | 1:59:05 | 94 | 1:01:00 | 94.3 | 0.09 | 3.7 | 276 | 0 | 72 | 72 | 73 | 73 |
| 04/30/2026 | 3:00:00 | 120 | 67 | 2:07:04 | 66 | 2:54:00 | 66 | 95 | 2:49:02 | 94 | 2:02:00 | 94.5 | 0.01 | 3.2 | 129 | 0 | 72 | 72 | 73 | 73 |
| 04/30/2026 | 4:00:00 | 120 | 66 | 3:00:01 | 65 | 3:59:05 | 65 | 95 | 3:43:00 | 94 | 3:35:00 | 94.5 | 0.01 | 1.6 | 339 | 0 | 72 | 72 | 73 | 72 |
| 04/30/2026 | 5:00:00 | 120 | 66 | 4:46:03 | 64 | 4:20:00 | 66 | 95 | 4:43:00 | 94 | 4:17:04 | 94.8 | 0 | 2.2 | 332 | 0 | 71 | 71 | 72 | 72 |
| 04/30/2026 | 6:00:00 | 120 | 66 | 5:55:04 | 65 | 5:07:02 | 66 | 95 | 5:30:02 | 95 | 5:06:04 | 94.8 | 0 | 2.6 | 3 | 1 | 71 | 71 | 72 | 72 |
| 04/30/2026 | 7:00:00 | 120 | 67 | 6:58:01 | 66 | 6:03:03 | 67 | 95 | 6:01:01 | 94 | 7:00:00 | 94.4 | 0 | 3.8 | 28 | 5 | 71 | 72 | 72 | 72 |
| 04/30/2026 | 8:00:00 | 120 | 67 | 7:53:04 | 67 | 7:00:02 | 67 | 95 | 7:01:04 | 94 | 7:47:02 | 93.9 | 0.05 | 2.6 | 35 | 5 | 72 | 72 | 72 | 72 |
| 04/30/2026 | 9:00:00 | 120 | 68 | 8:51:00 | 67 | 8:00:01 | 68 | 94 | 8:02:03 | 93 | 8:54:00 | 93.4 | 0 | 2.1 | 51 | 10 | 72 | 73 | 72 | 73 |
| 04/30/2026 | 10:00:00 | 120 | 70 | 9:59:04 | 68 | 9:00:00 | 70 | 94 | 9:01:02 | 92 | 9:55:04 | 91.9 | 0 | 1.8 | 70 | 13 | 73 | 73 | 73 | 73 |
| 04/30/2026 | 11:00:00 | 120 | 72 | 11:00:00 | 70 | 10:04:01 | 72 | 92 | 10:05:05 | 87 | 10:49:05 | 87.5 | 0 | 2.5 | 73 | 22 | 74 | 75 | 73 | 74 |
| 04/30/2026 | 12:00:00 | 120 | 74 | 11:22:01 | 72 | 11:00:00 | 72 | 88 | 11:00:02 | 84 | 11:25:02 | 85.8 | 0 | 3.0 | 53 | 29 | 75 | 76 | 74 | 75 |
| 04/30/2026 | 13:00:00 | 120 | 73 | 12:53:05 | 71 | 12:33:04 | 73 | 87 | 12:44:02 | 85 | 12:58:02 | 85.2 | 0 | 3.1 | 55 | 13 | 76 | 76 | 75 | 75 |
| 04/30/2026 | 14:00:00 | 120 | 74 | 13:55:04 | 73 | 13:00:00 | 73 | 86 | 13:04:02 | 82 | 13:58:02 | 82.8 | 0 | 3.8 | 72 | 24 | 76 | 76 | 75 | 75 |
| 04/30/2026 | 15:00:00 | 120 | 75 | 14:53:04 | 73 | 14:00:01 | 74 | 84 | 14:04:03 | 82 | 14:55:05 | 82 | 0 | 3.4 | 59 | 24 | 77 | 77 | 76 | 76 |
| 04/30/2026 | 16:00:00 | 120 | 74 | 15:05:04 | 73 | 15:54:01 | 73 | 85 | 15:55:03 | 82 | 15:08:01 | 84.4 | 0 | 2.9 | 44 | 10 | 77 | 77 | 76 | 76 |
| 04/30/2026 | 17:00:00 | 120 | 73 | 16:01:01 | 70 | 16:59:04 | 70 | 89 | 16:59:01 | 84 | 16:03:04 | 88.5 | 0.02 | 3.2 | 32 | 2 | 76 | 76 | 76 | 76 |
| 04/30/2026 | 18:00:00 | 120 | 70 | 17:00:00 | 68 | 17:53:00 | 68 | 92 | 18:00:00 | 89 | 17:00:00 | 92.1 | 0.13 | 3.0 | 50 | 1 | 75 | 75 | 76 | 75 |
| 04/30/2026 | 19:00:00 | 120 | 68 | 18:12:05 | 68 | 18:45:02 | 68 | 93 | 18:53:02 | 92 | 18:01:04 | 92.8 | 0.03 | 1.0 | 13 | 0 | 74 | 74 | 75 | 75 |
| 04/30/2026 | 20:00:00 | 120 | 68 | 19:00:01 | 67 | 19:47:01 | 67 | 93 | 19:42:00 | 93 | 19:06:02 | 93.1 | 0.01 | 3.5 | 54 | 0 | 74 | 74 | 74 | 74 |
| 04/30/2026 | 21:00:00 | 120 | 67 | 20:00:01 | 66 | 20:43:01 | 67 | 93 | 20:07:01 | 93 | 20:59:04 | 92.8 | 0 | 2.5 | 48 | 0 | 73 | 73 | 74 | 74 |
| 04/30/2026 | 22:00:00 | 120 | 67 | 21:18:02 | 66 | 21:40:02 | 67 | 93 | 21:03:01 | 93 | 21:45:00 | 92.8 | 0 | 2.4 | 14 | 0 | 73 | 73 | 74 | 74 |
| 04/30/2026 | 23:00:00 | 120 | 67 | 22:00:03 | 64 | 22:58:03 | 64 | 93 | 22:16:03 | 93 | 22:19:00 | 92.7 | 0.01 | 4.7 | 18 | 0 | 73 | 72 | 73 | 73 |
| 05/01/2026 | 0:00:00 | 121 | 64 | 23:00:03 | 64 | 23:42:04 | 64 | 93 | 23:36:02 | 93 | 23:58:04 | 92.7 | 0 | 4.2 | 27 | 0 | 72 | 72 | 73 | 73 |
| 05/01/2026 | 1:00:00 | 121 | 64 | 0:02:00 | 63 | 0:34:01 | 63 | 93 | 0:31:04 | 92 | 0:52:03 | 92.6 | 0 | 2.2 | 50 | 0 | 72 | 72 | 73 | 72 |
| 05/01/2026 | 2:00:00 | 121 | 64 | 1:00:05 | 63 | 1:13:01 | 63 | 93 | 1:00:01 | 92 | 1:56:02 | 92.4 | 0 | 2.0 | 22 | 0 | 71 | 71 | 72 | 72 |
| 05/01/2026 | 3:00:00 | 121 | 63 | 2:01:00 | 62 | 3:00:00 | 62 | 93 | 2:58:00 | 92 | 2:05:01 | 92.6 | 0 | 2.8 | 68 | 0 | 71 | 71 | 72 | 72 |
| 05/01/2026 | 4:00:00 | 121 | 63 | 3:47:02 | 62 | 3:12:02 | 63 | 93 | 3:10:02 | 92 | 3:50:02 | 92.3 | 0 | 2.3 | 37 | 0 | 71 | 71 | 72 | 72 |
| 05/01/2026 | 5:00:00 | 121 | 63 | 4:04:03 | 62 | 4:58:00 | 62 | 93 | 4:59:04 | 92 | 4:10:00 | 93 | 0.06 | 3.1 | 7 | 0 | 71 | 70 | 71 | 71 |
| 05/01/2026 | 6:00:00 | 121 | 62 | 5:04:00 | 62 | 5:24:00 | 62 | 93 | 5:57:02 | 93 | 5:06:01 | 93.3 | 0.01 | 3.7 | 53 | 0 | 70 | 70 | 71 | 71 |
| 05/01/2026 | 7:00:00 | 121 | 62 | 6:10:01 | 62 | 6:45:01 | 62 | 93 | 6:48:05 | 93 | 6:45:00 | 93.1 | 0.02 | 2.8 | 31 | 2 | 70 | 70 | 71 | 71 |
| 05/01/2026 | 8:00:00 | 121 | 62 | 7:58:03 | 61 | 7:26:00 | 62 | 93 | 7:11:04 | 93 | 7:50:04 | 92.8 | 0.01 | 3.5 | 38 | 5 | 70 | 70 | 71 | 71 |
| 05/01/2026 | 9:00:00 | 121 | 62 | 8:19:00 | 61 | 8:57:00 | 61 | 93 | 8:05:04 | 92 | 8:55:00 | 91.9 | 0 | 4.2 | 38 | 6 | 70 | 70 | 71 | 71 |
| 05/01/2026 | 10:00:00 | 121 | 62 | 9:56:00 | 61 | 9:02:02 | 62 | 92 | 9:00:01 | 90 | 9:34:05 | 90.4 | 0 | 3.9 | 25 | 11 | 70 | 70 | 71 | 71 |
| 05/01/2026 | 11:00:00 | 121 | 62 | 10:04:04 | 61 | 10:47:03 | 61 | 91 | 10:59:00 | 90 | 10:21:04 | 90.9 | 0.02 | 4.5 | 29 | 8 | 70 | 70 | 71 | 71 |
| 05/01/2026 | 12:00:00 | 121 | 62 | 11:58:04 | 60 | 11:15:00 | 61 | 92 | 11:24:04 | 90 | 11:59:04 | 90.5 | 0 | 4.7 | 34 | 14 | 70 | 71 | 71 | 71 |
| 05/01/2026 | 13:00:00 | 121 | 62 | 12:42:01 | 61 | 12:03:01 | 62 | 91 | 12:05:01 | 88 | 12:39:03 | 88.9 | 0 | 6.0 | 38 | 16 | 71 | 71 | 71 | 71 |
| 05/01/2026 | 14:00:00 | 121 | 62 | 13:00:04 | 59 | 13:59:05 | 59 | 89 | 13:53:02 | 87 | 13:32:01 | 88.5 | 0.06 | 8.1 | 21 | 6 | 71 | 70 | 71 | 71 |
| 05/01/2026 | 15:00:00 | 121 | 59 | 14:00:01 | 57 | 14:57:03 | 57 | 92 | 14:59:02 | 88 | 14:05:04 | 91.6 | 0.36 | 5.2 | 32 | 1 | 69 | 68 | 70 | 70 |
| 05/01/2026 | 16:00:00 | 121 | 57 | 15:00:00 | 54 | 15:59:03 | 54 | 92 | 15:52:05 | 92 | 15:02:02 | 92 | 0.4 | 5.2 | 25 | 2 | 67 | 66 | 69 | 68 |
| 05/01/2026 | 17:00:00 | 121 | 55 | 16:01:01 | 54 | 16:16:02 | 54 | 93 | 16:45:05 | 92 | 16:00:00 | 92.8 | 0.2 | 5.2 | 47 | 3 | 66 | 65 | 68 | 67 |
| 05/01/2026 | 18:00:00 | 121 | 54 | 17:08:00 | 54 | 17:53:01 | 54 | 93 | 17:08:02 | 92 | 17:37:00 | 92.6 | 0.1 | 5.1 | 45 | 1 | 65 | 65 | 67 | 67 |
| 05/01/2026 | 19:00:00 | 121 | 54 | 18:31:00 | 53 | 18:56:03 | 54 | 93 | 18:58:05 | 93 | 18:01:04 | 93.1 | 0.13 | 3.2 | 60 | 0 | 65 | 65 | 67 | 66 |
| 05/01/2026 | 20:00:00 | 121 | 54 | 19:37:03 | 53 | 19:05:01 | 54 | 94 | 19:58:03 | 93 | 19:04:04 | 93.5 | 0.2 | 2.9 | 48 | 0 | 65 | 64 | 66 | 66 |
| 05/01/2026 | 21:00:00 | 121 | 54 | 20:05:01 | 53 | 20:56:05 | 53 | 94 | 20:43:01 | 94 | 20:01:00 | 93.8 | 0.3 | 4.1 | 32 | 0 | 64 | 63 | 66 | 65 |
| 05/01/2026 | 22:00:00 | 121 | 53 | 21:01:01 | 53 | 21:59:04 | 53 | 94 | 21:23:00 | 94 | 22:00:00 | 93.5 | 0.05 | 5.3 | 26 | 0 | 63 | 63 | 65 | 65 |
| 05/01/2026 | 23:00:00 | 121 | 53 | 22:00:04 | 52 | 22:30:01 | 52 | 94 | 22:00:05 | 93 | 23:00:00 | 92.5 | 0 | 4.8 | 31 | 0 | 63 | 63 | 65 | 65 |
| 05/02/2026 | 0:00:00 | 122 | 53 | 23:37:00 | 52 | 23:59:02 | 52 | 93 | 23:02:02 | 92 | 23:46:03 | 92.3 | 0.06 | 5.5 | 20 | 0 | 63 | 63 | 65 | 65 |
| 05/02/2026 | 1:00:00 | 122 | 53 | 0:52:01 | 52 | 0:03:00 | 53 | 93 | 0:49:00 | 92 | 0:03:00 | 92.8 | 0.09 | 4.7 | 13 | 0 | 63 | 63 | 64 | 64 |
| 05/02/2026 | 2:00:00 | 122 | 53 | 1:13:02 | 53 | 1:00:01 | 53 | 93 | 1:58:01 | 93 | 1:05:02 | 92.9 | 0.04 | 5.1 | 20 | 0 | 63 | 63 | 64 | 64 |
| 05/02/2026 | 3:00:00 | 122 | 53 | 2:56:05 | 53 | 2:00:03 | 53 | 93 | 2:04:01 | 93 | 2:58:05 | 92.8 | 0.01 | 5.3 | 12 | 0 | 63 | 63 | 64 | 64 |
| 05/02/2026 | 4:00:00 | 122 | 53 | 3:18:05 | 52 | 3:59:05 | 52 | 93 | 3:00:03 | 90 | 3:45:03 | 90.9 | 0.05 | 6.5 | 19 | 0 | 62 | 62 | 64 | 64 |
| 05/02/2026 | 5:00:00 | 122 | 53 | 4:55:03 | 52 | 4:16:03 | 52 | 91 | 4:14:00 | 91 | 4:58:01 | 90.6 | 0.01 | 4.8 | 21 | 0 | 62 | 62 | 64 | 64 |
| 05/02/2026 | 6:00:00 | 122 | 53 | 5:57:02 | 52 | 5:07:04 | 53 | 91 | 5:56:05 | 90 | 5:20:04 | 90.8 | 0 | 2.1 | 34 | 1 | 62 | 62 | 64 | 64 |
| 05/02/2026 | 7:00:00 | 122 | 55 | 6:59:03 | 53 | 6:00:01 | 55 | 92 | 6:51:02 | 91 | 6:16:01 | 91.4 | 0 | 3.1 | 6 | 6 | 62 | 63 | 64 | 64 |
| 05/02/2026 | 8:00:00 | 122 | 58 | 7:47:01 | 54 | 7:01:02 | 58 | 92 | 7:04:04 | 87 | 7:58:00 | 87.5 | 0 | 5.0 | 2 | 25 | 63 | 64 | 64 | 64 |
| 05/02/2026 | 9:00:00 | 122 | 62 | 8:55:05 | 58 | 8:00:00 | 62 | 88 | 8:00:04 | 78 | 8:59:05 | 78.09 | 0 | 6.8 | 14 | 51 | 65 | 66 | 65 | 65 |
| 05/02/2026 | 10:00:00 | 122 | 66 | 10:00:00 | 62 | 9:00:03 | 66 | 80 | 9:05:03 | 70 | 9:48:05 | 71.16 | 0 | 6.9 | 0 | 63 | 68 | 69 | 66 | 67 |
| 05/02/2026 | 11:00:00 | 122 | 68 | 10:59:00 | 66 | 10:00:01 | 68 | 73 | 10:05:05 | 61 | 10:52:03 | 63.05 | 0 | 7.7 | 6 | 76 | 70 | 72 | 68 | 69 |
| 05/02/2026 | 12:00:00 | 122 | 70 | 11:54:02 | 67 | 11:02:05 | 69 | 66 | 11:05:04 | 48 | 11:55:01 | 50.5 | 0 | 8.7 | 5 | 80 | 73 | 74 | 70 | 71 |
| 05/02/2026 | 13:00:00 | 122 | 71 | 12:53:01 | 68 | 12:14:01 | 70 | 55 | 12:00:04 | 41 | 12:55:05 | 46.75 | 0 | 8.9 | 357 | 83 | 74 | 75 | 72 | 73 |
| 05/02/2026 | 14:00:00 | 122 | 72 | 13:56:05 | 70 | 13:12:00 | 71 | 47 | 13:04:03 | 37 | 13:54:01 | 40.42 | 0 | 9.4 | 8 | 78 | 76 | 76 | 73 | 74 |
| 05/02/2026 | 15:00:00 | 122 | 72 | 14:52:03 | 71 | 14:28:04 | 72 | 45 | 14:29:03 | 37 | 14:09:02 | 40.4 | 0 | 8.3 | 8 | 67 | 76 | 76 | 74 | 74 |
| 05/02/2026 | 16:00:00 | 122 | 73 | 15:05:05 | 71 | 15:50:03 | 72 | 45 | 15:39:05 | 37 | 15:29:04 | 43.71 | 0 | 7.2 | 10 | 48 | 76 | 76 | 74 | 74 |
| 05/02/2026 | 17:00:00 | 122 | 72 | 16:00:05 | 71 | 16:56:04 | 71 | 45 | 16:23:04 | 39 | 16:18:03 | 41.9 | 0 | 6.6 | 0 | 20 | 75 | 74 | 74 | 74 |
| 05/02/2026 | 18:00:00 | 122 | 71 | 17:04:04 | 68 | 17:59:05 | 68 | 50 | 17:58:03 | 40 | 17:09:05 | 49.82 | 0 | 4.5 | 5 | 16 | 73 | 72 | 73 | 73 |
| 05/02/2026 | 19:00:00 | 122 | 68 | 18:00:00 | 61 | 18:57:03 | 61 | 66 | 18:55:02 | 49 | 18:00:05 | 63.42 | 0 | 1.5 | 351 | 2 | 71 | 71 | 72 | 72 |
| 05/02/2026 | 20:00:00 | 122 | 61 | 19:03:02 | 56 | 20:00:00 | 56 | 80 | 20:00:00 | 63 | 19:02:02 | 80.3 | 0 | 0.9 | 343 | 0 | 70 | 69 | 71 | 70 |
| 05/02/2026 | 21:00:00 | 122 | 57 | 20:59:01 | 53 | 20:35:04 | 57 | 86 | 20:37:02 | 71 | 20:59:03 | 71.25 | 0 | 1.1 | 338 | 0 | 68 | 68 | 70 | 69 |
| 05/02/2026 | 22:00:00 | 122 | 58 | 21:12:04 | 56 | 21:31:03 | 57 | 73 | 21:33:01 | 71 | 21:15:02 | 71.86 | 0 | 1.8 | 4 | 0 | 67 | 67 | 69 | 68 |
| 05/02/2026 | 23:00:00 | 122 | 57 | 22:00:00 | 51 | 22:59:04 | 51 | 83 | 22:59:04 | 71 | 22:05:02 | 83.3 | 0 | 0.7 | 9 | 0 | 66 | 66 | 68 | 68 |
| 05/03/2026 | 0:00:00 | 123 | 52 | 23:18:01 | 49 | 23:58:05 | 49 | 89 | 23:54:01 | 83 | 23:00:01 | 89 | 0 | 0.8 | 122 | 0 | 65 | 65 | 67 | 67 |
| Average | 70.46 | 68.47 | 69.41 | 85.56 | 81.41 | 83.51 | 0.03 | 4.03 | 16.82 | 74.3 | 74.31 | 74.3 | 74.27 | |||||||
| Total | 5.91 |